Time;durP1;ratioP1;P1;durP2;ratioP2;P2;SDS_P1;SDS_P2;PMS_P1;PMS_P2;Temp;Humidity;BMP_temperature;BMP_pressure;BME280_temperature;BME280_humidity;BME280_pressure;Samples;Min_cycle;Max_cycle;Signal;HPM_P1;HPM_P2
2023/11/25 00:00:49;;;;;;;10.13;2.20;;;1.00;99.90;;;;;;6276889;22;20049;-82
2023/11/25 00:03:38;;;;;;;20.30;3.00;;;0.90;99.90;;;;;;6278197;22;20078;-85
2023/11/25 00:06:27;;;;;;;12.57;3.03;;;0.90;99.90;;;;;;6278353;22;20024;-85
2023/11/25 00:09:15;;;;;;;13.05;3.22;;;0.90;99.90;;;;;;6273936;22;20391;-85
2023/11/25 00:12:03;;;;;;;9.02;2.70;;;0.80;99.90;;;;;;6276805;22;20034;-85
2023/11/25 00:14:50;;;;;;;10.20;3.13;;;0.80;99.90;;;;;;6276560;22;20027;-85
2023/11/25 00:17:39;;;;;;;10.75;2.70;;;0.80;99.90;;;;;;6274633;22;20024;-85
2023/11/25 00:20:27;;;;;;;8.93;2.65;;;0.80;99.90;;;;;;6274279;22;20027;-83
2023/11/25 00:23:17;;;;;;;8.85;2.70;;;0.80;99.90;;;;;;6278913;22;20027;-85
2023/11/25 00:26:07;;;;;;;14.88;2.90;;;0.80;99.90;;;;;;6276605;22;20035;-85
2023/11/25 00:28:56;;;;;;;9.35;2.92;;;0.80;99.90;;;;;;6286622;22;20048;-84
2023/11/25 00:31:52;;;;;;;13.65;2.88;;;0.80;99.90;;;;;;6289087;22;20015;-84
2023/11/25 00:34:41;;;;;;;8.82;2.30;;;0.80;99.90;;;;;;6276579;22;20024;-85
2023/11/25 00:37:28;;;;;;;14.50;2.80;;;0.80;99.90;;;;;;6275939;22;20150;-84
2023/11/25 00:40:20;;;;;;;16.85;3.05;;;0.80;99.90;;;;;;6274054;22;20035;-80
2023/11/25 00:43:09;;;;;;;10.35;2.63;;;0.80;99.90;;;;;;6274510;22;20031;-83
2023/11/25 00:45:57;;;;;;;11.95;2.53;;;0.90;99.90;;;;;;6276308;22;20077;-86
2023/11/25 00:48:44;;;;;;;9.57;2.30;;;0.90;99.90;;;;;;6274577;22;20031;-85
2023/11/25 00:51:31;;;;;;;10.65;1.95;;;0.90;99.90;;;;;;6274947;22;20402;-80
2023/11/25 00:54:19;;;;;;;4.00;1.92;;;0.90;99.90;;;;;;6275898;22;20030;-85
2023/11/25 00:57:06;;;;;;;9.75;2.35;;;0.90;99.90;;;;;;6277422;22;20042;-85
2023/11/25 00:59:53;;;;;;;9.25;2.30;;;0.90;99.90;;;;;;6275760;22;20077;-85
2023/11/25 01:02:41;;;;;;;5.10;1.92;;;0.90;99.90;;;;;;6274593;22;20406;-85
2023/11/25 01:05:28;;;;;;;5.75;2.40;;;0.90;99.90;;;;;;6272792;22;20023;-86
2023/11/25 01:08:15;;;;;;;8.30;2.13;;;0.90;99.90;;;;;;6275737;22;20050;-85
2023/11/25 01:11:03;;;;;;;7.57;2.00;;;0.90;99.90;;;;;;6273837;22;20019;-85
2023/11/25 01:13:51;;;;;;;9.25;2.80;;;0.90;99.90;;;;;;6273276;22;20030;-85
2023/11/25 01:16:41;;;;;;;6.38;2.22;;;0.90;99.90;;;;;;6273670;22;20082;-85
2023/11/25 01:19:31;;;;;;;7.78;2.72;;;0.90;99.90;;;;;;6274384;22;20031;-85
2023/11/25 01:22:20;;;;;;;8.65;2.05;;;0.90;99.90;;;;;;6276084;22;20056;-85
2023/11/25 01:25:11;;;;;;;6.30;2.28;;;0.90;99.90;;;;;;6273855;22;20332;-85
2023/11/25 01:27:58;;;;;;;3.22;2.08;;;0.90;99.90;;;;;;6273924;22;20019;-85
2023/11/25 01:30:49;;;;;;;12.77;2.90;;;0.90;99.90;;;;;;6275172;22;20039;-85
2023/11/25 01:33:37;;;;;;;6.97;2.10;;;0.90;99.90;;;;;;6276449;22;20030;-86
2023/11/25 01:36:26;;;;;;;7.60;2.00;;;0.90;99.90;;;;;;6275048;22;20019;-84
2023/11/25 01:39:13;;;;;;;10.55;1.90;;;0.90;99.90;;;;;;6275856;22;20051;-86
2023/11/25 01:42:02;;;;;;;6.68;2.33;;;0.90;99.90;;;;;;6275445;22;20066;-86
2023/11/25 01:44:49;;;;;;;12.02;2.45;;;0.80;99.90;;;;;;6274919;22;20024;-85
2023/11/25 01:47:40;;;;;;;11.48;2.25;;;0.80;99.90;;;;;;6274273;22;20030;-84
2023/11/25 01:50:28;;;;;;;6.13;2.15;;;0.70;99.90;;;;;;6270088;22;20066;-85
2023/11/25 01:53:20;;;;;;;12.13;3.17;;;0.70;99.90;;;;;;6275950;22;20027;-85
2023/11/25 01:56:09;;;;;;;11.35;1.90;;;0.70;99.90;;;;;;6274065;22;20294;-86
2023/11/25 01:58:59;;;;;;;7.53;2.13;;;0.70;99.90;;;;;;6275805;22;20024;-85
2023/11/25 02:01:47;;;;;;;9.25;2.38;;;0.60;99.90;;;;;;6275645;22;20426;-84
2023/11/25 02:04:39;;;;;;;4.57;1.98;;;0.60;99.90;;;;;;6274247;22;20399;-85
2023/11/25 02:07:26;;;;;;;6.17;2.27;;;0.60;99.90;;;;;;6274239;22;20130;-85
2023/11/25 02:10:15;;;;;;;9.82;2.33;;;0.60;99.90;;;;;;6274626;22;20364;-85
2023/11/25 02:13:08;;;;;;;9.13;2.40;;;0.60;99.90;;;;;;6273466;22;20115;-84
2023/11/25 02:15:55;;;;;;;9.80;2.10;;;0.70;99.90;;;;;;6274647;22;20016;-84
2023/11/25 02:18:43;;;;;;;6.13;2.65;;;0.60;99.90;;;;;;6274983;22;20024;-84
2023/11/25 02:21:30;;;;;;;8.32;2.95;;;0.60;99.90;;;;;;6278064;22;20020;-84
2023/11/25 02:24:18;;;;;;;11.05;2.25;;;0.60;99.90;;;;;;6278534;22;20035;-84
2023/11/25 02:27:07;;;;;;;14.00;2.38;;;0.70;99.90;;;;;;6277115;22;20031;-84
2023/11/25 02:29:55;;;;;;;7.70;2.00;;;0.70;99.90;;;;;;6274863;22;20043;-85
2023/11/25 02:32:45;;;;;;;6.57;2.40;;;0.60;99.90;;;;;;6277385;22;20023;-84
2023/11/25 02:35:35;;;;;;;8.70;1.92;;;0.60;99.90;;;;;;6274849;22;20030;-84
2023/11/25 02:38:22;;;;;;;7.13;2.10;;;0.60;68.50;;;;;;6274176;22;20031;-83
2023/11/25 02:41:10;;;;;;;6.53;2.05;;;0.60;94.20;;;;;;6273139;22;20023;-84
2023/11/25 02:44:01;;;;;;;5.72;2.25;;;0.60;36.60;;;;;;6276666;22;20109;-85
2023/11/25 02:46:49;;;;;;;9.85;2.30;;;0.50;32.80;;;;;;6276651;22;20029;-84
2023/11/25 02:49:36;;;;;;;7.07;2.03;;;0.50;1.00;;;;;;6273665;22;20426;-85
2023/11/25 02:52:24;;;;;;;8.25;3.05;;;0.50;1.00;;;;;;6276025;22;20028;-84
2023/11/25 02:55:13;;;;;;;10.95;2.20;;;0.50;1.00;;;;;;6275087;22;20038;-84
2023/11/25 02:58:02;;;;;;;12.50;2.67;;;0.50;1.00;;;;;;6273784;22;20027;-81
2023/11/25 03:00:52;;;;;;;9.98;2.10;;;0.60;1.00;;;;;;6277013;22;20024;-85
2023/11/25 03:03:47;;;;;;;9.65;2.97;;;0.60;1.00;;;;;;6276897;22;20133;-84
2023/11/25 03:06:35;;;;;;;16.05;3.47;;;0.50;1.00;;;;;;6276021;22;20054;-85
2023/11/25 03:09:22;;;;;;;8.25;2.20;;;0.60;1.00;;;;;;6271401;22;20444;-82
2023/11/25 03:12:10;;;;;;;13.77;2.65;;;0.60;1.00;;;;;;6279289;22;20034;-84
2023/11/25 03:14:59;;;;;;;11.00;2.55;;;0.50;1.00;;;;;;6277699;22;20098;-85
2023/11/25 03:17:47;;;;;;;10.57;2.90;;;0.60;1.40;;;;;;6274100;22;20038;-85
2023/11/25 03:20:35;;;;;;;8.57;2.95;;;0.50;35.00;;;;;;6272767;22;20027;-84
2023/11/25 03:23:23;;;;;;;5.80;2.90;;;0.50;46.50;;;;;;6276168;22;20031;-85
2023/11/25 03:26:12;;;;;;;15.65;3.25;;;0.50;32.10;;;;;;6274971;22;20031;-85
2023/11/25 03:29:02;;;;;;;9.70;2.92;;;0.40;40.90;;;;;;6274460;22;20357;-83
2023/11/25 03:31:51;;;;;;;13.95;3.42;;;0.50;27.40;;;;;;6274588;22;20355;-85
2023/11/25 03:34:39;;;;;;;12.73;3.17;;;0.50;51.80;;;;;;6275113;22;20111;-86
2023/11/25 03:37:26;;;;;;;10.18;3.25;;;0.50;92.70;;;;;;6274700;22;20113;-84
2023/11/25 03:40:15;;;;;;;12.10;3.33;;;0.50;82.90;;;;;;6273710;22;20055;-85
2023/11/25 03:43:03;;;;;;;7.07;3.08;;;0.50;73.10;;;;;;6275546;22;20034;-85
2023/11/25 03:45:50;;;;;;;11.20;3.97;;;0.50;64.00;;;;;;6274905;22;20028;-84
2023/11/25 03:48:40;;;;;;;8.70;3.40;;;0.40;60.70;;;;;;6274213;22;20026;-81
2023/11/25 03:51:29;;;;;;;11.90;3.30;;;0.40;25.10;;;;;;6276431;22;20275;-83
2023/11/25 03:54:21;;;;;;;10.98;3.25;;;0.40;55.30;;;;;;6279382;22;20027;-85
2023/11/25 03:57:08;;;;;;;12.65;3.80;;;0.40;90.00;;;;;;6276350;22;20019;-85
2023/11/25 03:59:56;;;;;;;12.13;3.53;;;0.30;82.50;;;;;;6272183;22;20039;-85
2023/11/25 04:02:51;;;;;;;9.52;3.30;;;0.30;70.20;;;;;;6275362;22;20035;-84
2023/11/25 04:05:38;;;;;;;7.47;2.70;;;0.30;92.20;;;;;;6277570;22;20036;-85
2023/11/25 04:08:26;;;;;;;10.80;3.30;;;0.20;76.50;;;;;;6274453;22;20333;-85
2023/11/25 04:11:13;;;;;;;9.63;3.10;;;0.10;92.00;;;;;;6274370;22;20027;-85
2023/11/25 04:14:00;;;;;;;11.68;2.78;;;0.10;63.40;;;;;;6275615;22;20030;-84
2023/11/25 04:16:47;;;;;;;8.48;3.15;;;0.10;30.70;;;;;;6272782;22;20402;-85
2023/11/25 04:19:35;;;;;;;11.00;2.67;;;0.00;1.00;;;;;;6275673;22;20310;-85
2023/11/25 04:22:23;;;;;;;9.85;2.72;;;-0.10;18.70;;;;;;6274847;22;20035;-85
2023/11/25 04:25:12;;;;;;;12.57;2.97;;;-0.10;14.40;;;;;;6275036;22;20027;-84
2023/11/25 04:28:04;;;;;;;9.65;3.10;;;-0.20;34.70;;;;;;6274020;22;20023;-85
2023/11/25 04:30:52;;;;;;;16.88;3.25;;;-0.20;67.00;;;;;;6276822;22;20034;-83
2023/11/25 04:33:39;;;;;;;6.82;2.60;;;-0.30;96.00;;;;;;6275924;22;20071;-85
2023/11/25 04:36:26;;;;;;;11.02;2.80;;;-0.30;90.20;;;;;;6274123;22;20031;-84
2023/11/25 04:39:14;;;;;;;6.78;3.10;;;-0.40;91.70;;;;;;6274648;22;20275;-85
2023/11/25 04:42:01;;;;;;;13.90;2.90;;;-0.50;90.50;;;;;;6271984;22;20059;-85
2023/11/25 04:44:50;;;;;;;10.48;2.65;;;-0.60;94.50;;;;;;6272401;22;20046;-85
2023/11/25 04:47:37;;;;;;;9.38;2.88;;;-0.60;99.90;;;;;;6273655;22;20027;-84
2023/11/25 04:50:26;;;;;;;19.33;3.17;;;-0.70;99.90;;;;;;6272626;22;20027;-85
2023/11/25 04:53:14;;;;;;;11.55;2.72;;;-0.80;99.90;;;;;;6273394;22;20130;-85
2023/11/25 04:56:01;;;;;;;17.60;2.88;;;-0.90;99.90;;;;;;6275498;22;20028;-85
2023/11/25 04:58:50;;;;;;;13.13;3.05;;;-0.80;99.90;;;;;;6275069;22;20417;-85
2023/11/25 05:01:40;;;;;;;8.30;2.33;;;-0.70;99.90;;;;;;6275525;22;20035;-85
2023/11/25 05:04:27;;;;;;;11.43;2.80;;;-0.70;99.90;;;;;;6274664;22;20023;-85
2023/11/25 05:07:15;;;;;;;11.27;2.88;;;-0.70;99.90;;;;;;6272198;22;20034;-84
2023/11/25 05:10:09;;;;;;;11.52;2.55;;;-0.60;99.90;;;;;;6273694;22;20426;-82
2023/11/25 05:12:56;;;;;;;9.65;2.70;;;-0.70;99.90;;;;;;6274628;22;20130;-85
2023/11/25 05:15:43;;;;;;;10.02;2.70;;;-0.60;99.90;;;;;;6277111;22;20028;-85
2023/11/25 05:18:31;;;;;;;14.13;2.97;;;-0.60;99.90;;;;;;6271390;22;20048;-84
2023/11/25 05:21:21;;;;;;;8.27;2.92;;;-0.60;99.90;;;;;;6277298;22;20024;-79
2023/11/25 05:24:11;;;;;;;14.45;3.53;;;-0.50;99.90;;;;;;6275213;22;20115;-84
2023/11/25 05:26:58;;;;;;;6.07;2.20;;;-0.40;99.90;;;;;;6275403;22;20039;-85
2023/11/25 05:29:45;;;;;;;10.10;2.30;;;-0.40;99.90;;;;;;6272822;22;20263;-84
2023/11/25 05:32:33;;;;;;;11.40;3.15;;;-0.40;99.90;;;;;;6275171;22;20035;-84
2023/11/25 05:35:20;;;;;;;9.35;2.65;;;-0.40;99.90;;;;;;6272036;22;20031;-85
2023/11/25 05:38:09;;;;;;;8.20;3.15;;;-0.40;99.90;;;;;;6273444;22;20032;-84
2023/11/25 05:40:59;;;;;;;13.73;2.33;;;-0.40;99.90;;;;;;6273348;22;20034;-85
2023/11/25 05:43:50;;;;;;;15.45;2.53;;;-0.40;99.90;;;;;;6274435;22;20023;-85
2023/11/25 05:46:37;;;;;;;18.27;4.40;;;-0.30;99.90;;;;;;6272588;22;20341;-85
2023/11/25 05:49:24;;;;;;;12.73;2.60;;;-0.40;99.90;;;;;;6272228;22;20594;-85
2023/11/25 05:52:12;;;;;;;10.77;3.13;;;-0.40;99.90;;;;;;6274330;22;20051;-85
2023/11/25 05:54:59;;;;;;;14.13;3.08;;;-0.40;99.90;;;;;;6272488;22;20151;-85
2023/11/25 05:57:46;;;;;;;8.75;2.72;;;-0.50;99.90;;;;;;6273010;22;20034;-84
2023/11/25 06:00:34;;;;;;;16.77;4.03;;;-0.50;99.90;;;;;;6276274;22;20038;-83
2023/11/25 06:03:23;;;;;;;17.83;5.53;;;-0.70;99.90;;;;;;6277985;22;20130;-85
2023/11/25 06:06:14;;;;;;;13.20;3.75;;;-0.70;99.90;;;;;;6272961;22;20039;-84
2023/11/25 06:09:02;;;;;;;18.17;3.97;;;-0.70;99.90;;;;;;6274321;22;20122;-84
2023/11/25 06:11:52;;;;;;;15.23;3.92;;;-0.60;99.90;;;;;;6275977;22;20291;-85
2023/11/25 06:14:39;;;;;;;12.95;2.88;;;-0.70;99.90;;;;;;6273932;22;20042;-83
2023/11/25 06:17:29;;;;;;;12.05;3.15;;;-0.80;99.90;;;;;;6277134;22;20034;-82
2023/11/25 06:20:16;;;;;;;8.77;3.00;;;-0.70;99.90;;;;;;6276569;22;20027;-83
2023/11/25 06:23:07;;;;;;;16.88;3.13;;;-0.60;99.90;;;;;;6272213;22;20023;-82
2023/11/25 06:25:54;;;;;;;8.82;2.70;;;-0.60;99.90;;;;;;6274003;22;20039;-83
2023/11/25 06:28:47;;;;;;;8.63;3.00;;;-0.50;99.90;;;;;;6271387;22;20033;-84
2023/11/25 06:31:42;;;;;;;11.18;2.70;;;-0.40;99.90;;;;;;6271831;22;20165;-82
2023/11/25 06:34:38;;;;;;;9.35;2.90;;;-0.40;99.90;;;;;;6273513;22;20027;-83
2023/11/25 06:37:26;;;;;;;12.95;3.22;;;-0.30;99.90;;;;;;6274757;22;20028;-83
2023/11/25 06:40:13;;;;;;;7.28;2.50;;;-0.20;99.90;;;;;;6273126;22;20330;-85
2023/11/25 06:43:01;;;;;;;13.27;2.58;;;-0.20;99.90;;;;;;6272921;22;20027;-80
2023/11/25 06:45:49;;;;;;;10.02;4.35;;;-0.10;99.90;;;;;;6276784;22;20028;-84
2023/11/25 06:48:38;;;;;;;15.65;3.97;;;-0.10;99.90;;;;;;6274231;22;20027;-84
2023/11/25 06:52:23;;;;;;;13.93;4.25;;;-0.10;99.90;;;;;;6276062;22;20027;-84
2023/11/25 06:55:24;;;;;;;7.85;3.38;;;0.00;99.90;;;;;;6273544;22;20110;-83
2023/11/25 06:58:12;;;;;;;10.10;3.30;;;0.00;99.90;;;;;;6275817;22;20482;-81
2023/11/25 07:01:04;;;;;;;8.30;2.53;;;0.00;99.90;;;;;;6274273;22;20035;-85
2023/11/25 07:03:51;;;;;;;7.22;2.92;;;0.00;99.90;;;;;;6277569;22;20098;-80
2023/11/25 07:06:38;;;;;;;9.63;3.17;;;0.00;99.90;;;;;;6276461;22;20028;-85
2023/11/25 07:09:30;;;;;;;10.73;2.95;;;0.00;99.90;;;;;;6274343;22;20046;-84
2023/11/25 07:12:17;;;;;;;8.80;3.08;;;0.00;99.90;;;;;;6274919;22;20339;-85
2023/11/25 07:15:06;;;;;;;12.65;3.00;;;0.00;99.90;;;;;;6272629;22;20046;-86
2023/11/25 07:17:54;;;;;;;8.90;3.15;;;0.00;99.90;;;;;;6273563;22;20023;-86
2023/11/25 07:20:41;;;;;;;10.10;3.05;;;-0.10;99.90;;;;;;6274776;22;20023;-85
2023/11/25 07:23:29;;;;;;;7.90;3.00;;;0.00;99.90;;;;;;6273012;22;20405;-85
2023/11/25 07:26:16;;;;;;;13.77;4.35;;;0.10;99.90;;;;;;6275317;22;20073;-85
2023/11/25 07:29:04;;;;;;;16.05;3.42;;;0.00;99.90;;;;;;6274647;22;20023;-85
2023/11/25 07:31:51;;;;;;;9.85;3.10;;;0.10;99.90;;;;;;6275459;22;20066;-83
2023/11/25 07:34:39;;;;;;;9.75;3.72;;;0.20;99.90;;;;;;6271725;22;20035;-83
2023/11/25 07:37:28;;;;;;;16.08;3.65;;;0.20;99.90;;;;;;6273400;22;20467;-83
2023/11/25 07:40:16;;;;;;;9.73;3.45;;;0.20;85.40;;;;;;6274834;22;20028;-84
2023/11/25 07:43:04;;;;;;;8.43;2.72;;;0.30;50.90;;;;;;6275208;22;20055;-80
2023/11/25 07:45:53;;;;;;;7.63;2.97;;;0.30;29.60;;;;;;6274407;22;20103;-83
2023/11/25 07:48:45;;;;;;;10.38;2.58;;;0.30;1.00;;;;;;6273563;22;20028;-83
2023/11/25 07:51:37;;;;;;;14.60;3.72;;;0.40;1.00;;;;;;6277198;22;20023;-84
2023/11/25 07:54:24;;;;;;;11.23;4.00;;;0.40;1.00;;;;;;6276162;22;20043;-81
2023/11/25 07:57:12;;;;;;;8.40;3.67;;;0.50;1.00;;;;;;6276922;22;20030;-85
2023/11/25 08:00:02;;;;;;;18.02;3.97;;;0.50;1.00;;;;;;6281103;22;20505;-83
2023/11/25 08:02:55;;;;;;;12.40;3.75;;;0.50;99.90;;;;;;6284974;22;20027;-85
2023/11/25 08:05:44;;;;;;;9.75;2.80;;;0.60;99.90;;;;;;6286923;22;20051;-84
2023/11/25 08:08:33;;;;;;;7.72;2.60;;;0.60;99.90;;;;;;6290501;22;20111;-84
2023/11/25 08:11:23;;;;;;;5.70;3.15;;;0.70;99.90;;;;;;6291231;22;20026;-83
2023/11/25 08:14:10;;;;;;;12.95;3.40;;;0.70;99.90;;;;;;6279860;22;20034;-85
2023/11/25 08:16:58;;;;;;;11.95;4.85;;;0.80;25.10;;;;;;6271950;22;20101;-84
2023/11/25 08:19:45;;;;;;;15.98;3.45;;;0.90;1.00;;;;;;6273076;22;20034;-84
2023/11/25 08:22:33;;;;;;;13.10;3.15;;;0.90;1.00;;;;;;6270942;22;20027;-84
2023/11/25 08:25:23;;;;;;;4.47;2.47;;;1.00;99.90;;;;;;6273824;22;20042;-85
2023/11/25 08:28:10;;;;;;;10.20;2.80;;;1.00;99.90;;;;;;6275505;22;20028;-86
2023/11/25 08:30:57;;;;;;;11.30;2.90;;;1.30;99.90;;;;;;6274044;22;20031;-85
2023/11/25 08:33:45;;;;;;;15.98;2.88;;;1.40;99.90;;;;;;6273930;22;20046;-81
2023/11/25 08:36:32;;;;;;;6.28;2.53;;;1.60;1.00;;;;;;6277739;22;20023;-80
2023/11/25 08:39:26;;;;;;;13.98;2.70;;;1.80;99.90;;;;;;6275224;22;20111;-86
2023/11/25 08:42:17;;;;;;;8.93;2.25;;;1.90;99.90;;;;;;6277733;22;20122;-86
2023/11/25 08:45:05;;;;;;;10.25;2.00;;;2.00;1.00;;;;;;6273551;22;20229;-85
2023/11/25 08:47:54;;;;;;;9.50;3.20;;;1.90;99.90;;;;;;6274924;22;20051;-85
2023/11/25 08:50:43;;;;;;;11.48;2.63;;;2.00;99.90;;;;;;6277131;22;20024;-85
2023/11/25 08:53:30;;;;;;;9.40;2.53;;;1.90;99.90;;;;;;6281983;22;20135;-88
2023/11/25 08:56:18;;;;;;;10.40;2.92;;;1.90;2.70;;;;;;6288443;22;20030;-84
2023/11/25 08:59:08;;;;;;;9.27;2.70;;;1.90;1.00;;;;;;6285861;22;20150;-84
2023/11/25 09:01:57;;;;;;;7.15;2.53;;;1.70;1.00;;;;;;6284811;22;20288;-85
2023/11/25 09:04:47;;;;;;;12.38;2.72;;;1.70;28.90;;;;;;6277880;22;20098;-85
2023/11/25 09:07:54;;;;;;;8.90;2.85;;;1.70;25.00;;;;;;6273185;22;20540;-85
2023/11/25 09:10:46;;;;;;;9.50;2.65;;;1.70;99.90;;;;;;6275128;22;20024;-86
2023/11/25 09:13:33;;;;;;;11.82;2.95;;;1.90;99.90;;;;;;6271490;22;20027;-85
2023/11/25 09:16:20;;;;;;;15.48;3.38;;;2.00;99.90;;;;;;6275313;22;20042;-86
2023/11/25 09:19:08;;;;;;;13.55;2.92;;;2.20;1.00;;;;;;6274532;22;20028;-86
2023/11/25 09:21:56;;;;;;;9.80;3.28;;;2.40;1.00;;;;;;6272321;22;20091;-85
2023/11/25 09:24:44;;;;;;;13.82;3.03;;;2.40;99.90;;;;;;6273748;22;20023;-86
2023/11/25 09:27:31;;;;;;;14.70;3.13;;;2.40;99.90;;;;;;6277033;22;20027;-85
2023/11/25 09:30:23;;;;;;;15.32;2.60;;;2.20;99.90;;;;;;6275204;22;20024;-84
2023/11/25 09:33:10;;;;;;;24.03;4.77;;;2.10;99.90;;;;;;6274989;22;20583;-86
2023/11/25 09:35:58;;;;;;;20.10;3.50;;;2.10;99.90;;;;;;6274071;22;20513;-85
2023/11/25 09:38:45;;;;;;;24.77;3.65;;;2.20;99.90;;;;;;6273186;22;20284;-85
2023/11/25 09:41:33;;;;;;;17.67;3.42;;;2.20;99.90;;;;;;6275289;22;20428;-85
2023/11/25 09:44:23;;;;;;;19.77;4.70;;;2.30;99.90;;;;;;6275945;22;20039;-86
2023/11/25 09:47:11;;;;;;;15.02;3.58;;;2.50;99.90;;;;;;6275049;22;20095;-85
2023/11/25 09:49:59;;;;;;;19.52;4.68;;;2.90;1.00;;;;;;6274411;22;20023;-85
2023/11/25 09:52:51;;;;;;;11.70;3.65;;;2.70;99.90;;;;;;6273884;22;20116;-86
2023/11/25 09:55:44;;;;;;;16.20;3.95;;;2.70;99.90;;;;;;6273253;22;20023;-85
2023/11/25 09:58:37;;;;;;;16.38;4.95;;;3.30;99.90;;;;;;6275542;22;20031;-85
2023/11/25 10:01:25;;;;;;;14.52;3.67;;;3.40;41.20;;;;;;6275635;22;20031;-85
2023/11/25 10:04:14;;;;;;;15.13;3.95;;;3.20;1.00;;;;;;6272785;22;20520;-86
2023/11/25 10:07:01;;;;;;;21.95;4.13;;;3.90;99.90;;;;;;6274325;22;20034;-81
2023/11/25 10:09:50;;;;;;;12.73;3.17;;;4.70;32.20;;;;;;6276086;22;20023;-86
2023/11/25 10:12:41;;;;;;;17.20;3.50;;;4.90;99.90;;;;;;6275819;22;20079;-86
2023/11/25 10:15:28;;;;;;;18.30;3.88;;;4.70;99.90;;;;;;6271893;22;20034;-86
2023/11/25 10:23:29;;;;;;;15.57;3.80;;;3.90;1.00;;;;;;6288543;22;20080;-84
2023/11/25 10:26:18;;;;;;;15.77;3.30;;;4.30;99.30;;;;;;6312237;22;20023;-84
2023/11/25 10:29:09;;;;;;;15.80;3.22;;;4.60;1.00;;;;;;6267536;22;20064;-82
2023/11/25 10:31:58;;;;;;;15.55;4.20;;;4.80;1.00;;;;;;6248035;23;20028;-84
2023/11/25 10:34:50;;;;;;;10.60;2.60;;;5.40;99.90;;;;;;6249102;23;20031;-84
2023/11/25 10:37:42;;;;;;;18.35;4.28;;;5.80;99.90;;;;;;6249417;22;20026;-82
2023/11/25 10:40:29;;;;;;;18.92;3.30;;;6.40;1.00;;;;;;6247335;23;20082;-83
2023/11/25 10:43:22;;;;;;;16.58;3.58;;;7.10;1.00;;;;;;6248708;23;20135;-83
2023/11/25 10:46:10;;;;;;;16.25;3.95;;;6.30;99.90;;;;;;6251511;23;20031;-81
2023/11/25 10:48:59;;;;;;;12.48;3.00;;;5.30;99.90;;;;;;6260818;23;20028;-78
2023/11/25 10:51:55;;;;;;;16.10;4.03;;;4.60;99.90;;;;;;6256158;23;20027;-82
2023/11/25 10:54:45;;;;;;;23.10;3.97;;;4.30;99.90;;;;;;6253943;23;20020;-82
2023/11/25 10:57:33;;;;;;;14.82;3.60;;;4.90;99.90;;;;;;6233614;23;20361;-78
2023/11/25 11:00:21;;;;;;;12.88;3.00;;;5.60;99.90;;;;;;6257864;23;20393;-79
2023/11/25 11:03:12;;;;;;;18.33;4.22;;;6.90;99.90;;;;;;6254400;23;20055;-80
2023/11/25 11:06:04;;;;;;;19.77;3.58;;;7.10;41.80;;;;;;6253111;23;20032;-82
2023/11/25 11:08:57;;;;;;;16.30;3.35;;;6.30;1.00;;;;;;6250649;23;20090;-84
2023/11/25 11:11:50;;;;;;;23.33;3.95;;;5.60;1.00;;;;;;6227779;23;20031;-84
2023/11/25 11:14:47;;;;;;;7.78;3.28;;;5.60;1.00;;;;;;6227872;23;20044;-84
2023/11/25 11:17:45;;;;;;;13.88;3.33;;;5.70;1.00;;;;;;6249279;23;20021;-83
2023/11/25 11:20:41;;;;;;;13.82;3.22;;;6.20;1.00;;;;;;6249972;23;20028;-85
2023/11/25 11:23:36;;;;;;;20.15;4.00;;;6.90;1.00;;;;;;6230123;23;20052;-84
2023/11/25 11:26:43;;;;;;;15.10;3.17;;;7.00;1.00;;;;;;6225256;23;20024;-83
2023/11/25 11:29:42;;;;;;;10.98;3.00;;;7.40;1.00;;;;;;6216284;23;20142;-81
2023/11/25 11:32:34;;;;;;;11.50;2.70;;;7.50;1.00;;;;;;6248103;23;20028;-82
2023/11/25 11:35:39;;;;;;;14.40;2.78;;;6.80;1.00;;;;;;6246750;23;20437;-83
2023/11/25 11:38:32;;;;;;;5.80;2.55;;;5.60;1.00;;;;;;6246183;23;20081;-85
2023/11/25 11:41:23;;;;;;;;;;;5.40;1.00;;;;;;6223378;23;20028;-82
2023/11/25 11:44:10;;;;;;;8.82;2.38;;;5.30;1.00;;;;;;6246564;23;19919;-84
2023/11/25 11:47:02;;;;;;;9.88;2.70;;;5.10;1.00;;;;;;6245590;23;20306;-82
2023/11/25 11:49:51;;;;;;;20.00;2.70;;;4.80;1.00;;;;;;6244544;23;20019;-82
2023/11/25 11:53:14;;;;;;;7.20;2.30;;;4.60;1.00;;;;;;6245406;23;20485;-82
2023/11/25 11:56:01;;;;;;;12.15;3.03;;;4.30;1.00;;;;;;6244553;23;20024;-83
2023/11/25 11:58:58;;;;;;;14.10;2.40;;;3.90;1.00;;;;;;6242656;23;20183;-82
2023/11/25 12:01:48;;;;;;;10.23;2.60;;;3.70;1.00;;;;;;6225173;23;20032;-81
2023/11/25 12:04:35;;;;;;;7.65;2.28;;;3.50;7.70;;;;;;6221365;23;20351;-80
2023/11/25 12:07:24;;;;;;;13.48;2.78;;;3.10;99.90;;;;;;6242475;23;20161;-81
2023/11/25 12:10:11;;;;;;;13.50;2.75;;;2.90;37.20;;;;;;6242014;23;20034;-81
2023/11/25 12:13:01;;;;;;;13.02;2.67;;;2.90;1.00;;;;;;6221649;23;20107;-80
2023/11/25 12:15:59;;;;;;;10.63;2.50;;;2.80;99.90;;;;;;6224442;23;20032;-82
2023/11/25 12:18:49;;;;;;;11.77;3.03;;;2.70;99.90;;;;;;6246884;23;20028;-83
2023/11/25 12:21:37;;;;;;;10.02;2.63;;;2.60;1.00;;;;;;6245939;23;20326;-80
2023/11/25 12:24:26;;;;;;;13.85;2.85;;;2.50;99.90;;;;;;6242012;23;20034;-81
2023/11/25 12:27:17;;;;;;;10.18;3.03;;;2.60;99.90;;;;;;6247816;23;20591;-82
2023/11/25 12:30:06;;;;;;;10.07;3.45;;;2.60;99.90;;;;;;6259995;22;20128;-81
2023/11/25 12:32:53;;;;;;;13.70;3.30;;;2.70;6.60;;;;;;6252902;22;20024;-82
2023/11/25 12:35:45;;;;;;;11.50;3.05;;;2.60;99.90;;;;;;6273525;22;20024;-83
2023/11/25 12:38:36;;;;;;;17.15;3.25;;;2.50;99.90;;;;;;6274861;22;20290;-82
2023/11/25 12:41:24;;;;;;;17.25;3.58;;;2.50;99.90;;;;;;6273954;22;20067;-83
2023/11/25 12:44:15;;;;;;;12.60;3.03;;;2.50;99.90;;;;;;6274047;22;20109;-82
2023/11/25 12:47:08;;;;;;;18.38;3.38;;;2.50;99.90;;;;;;6274202;22;20286;-83
2023/11/25 12:50:11;;;;;;;6.90;2.72;;;2.50;99.90;;;;;;6274758;22;20263;-83
2023/11/25 12:53:10;;;;;;;8.82;2.95;;;2.50;99.90;;;;;;6275059;22;20110;-82
2023/11/25 12:55:58;;;;;;;13.13;3.13;;;2.50;99.90;;;;;;6274901;22;20047;-83
2023/11/25 12:58:46;;;;;;;7.45;2.67;;;2.50;99.90;;;;;;6272855;22;20471;-83
2023/11/25 13:01:36;;;;;;;9.50;3.38;;;2.50;99.90;;;;;;6275450;22;20132;-84
2023/11/25 13:04:29;;;;;;;10.82;3.45;;;2.50;99.90;;;;;;6276115;22;20098;-83
2023/11/25 13:07:33;;;;;;;13.32;3.05;;;2.50;99.90;;;;;;6274169;22;20314;-82
2023/11/25 13:10:22;;;;;;;10.20;2.80;;;2.60;99.90;;;;;;6273494;22;20023;-81
2023/11/25 13:13:10;;;;;;;10.65;2.75;;;2.50;1.00;;;;;;6272912;22;20024;-82
2023/11/25 13:16:01;;;;;;;5.68;2.13;;;2.50;1.00;;;;;;6249855;22;20028;-80
2023/11/25 13:18:52;;;;;;;8.63;2.58;;;2.50;99.50;;;;;;6277636;22;20034;-82
2023/11/25 13:21:42;;;;;;;12.43;2.33;;;2.40;99.90;;;;;;6273858;22;20031;-82
2023/11/25 13:24:30;;;;;;;11.32;3.33;;;2.40;1.00;;;;;;6249594;22;20024;-82
2023/11/25 13:27:17;;;;;;;11.68;2.58;;;2.40;99.90;;;;;;6252614;22;20161;-79
2023/11/25 13:30:08;;;;;;;13.40;3.97;;;2.30;1.00;;;;;;6273184;22;20027;-81
2023/11/25 13:32:55;;;;;;;7.38;2.58;;;2.20;1.00;;;;;;6275393;22;20031;-81
2023/11/25 13:35:46;;;;;;;10.63;2.78;;;2.10;1.00;;;;;;6272567;22;20291;-81
2023/11/25 13:38:34;;;;;;;7.85;2.35;;;2.00;1.00;;;;;;6251170;22;20283;-81
2023/11/25 13:41:21;;;;;;;11.80;3.20;;;2.00;1.00;;;;;;6249933;22;20031;-81
2023/11/25 13:44:11;;;;;;;8.48;2.67;;;1.90;48.90;;;;;;6273045;22;20486;-82
2023/11/25 13:47:01;;;;;;;9.27;2.63;;;1.80;68.20;;;;;;6274448;22;20046;-81
2023/11/25 13:49:52;;;;;;;8.40;2.50;;;1.80;87.40;;;;;;6272404;22;20046;-82
2023/11/25 13:52:41;;;;;;;12.85;2.72;;;1.80;99.90;;;;;;6273141;22;20165;-82
2023/11/25 13:55:30;;;;;;;16.33;3.17;;;1.80;99.90;;;;;;6273818;22;20283;-83
2023/11/25 13:58:17;;;;;;;7.38;2.75;;;1.80;99.90;;;;;;6275474;22;20020;-81
2023/11/25 14:01:05;;;;;;;8.88;3.15;;;1.90;99.90;;;;;;6275987;22;20046;-81
2023/11/25 14:03:56;;;;;;;7.35;2.67;;;1.80;99.90;;;;;;6272525;22;20055;-82
2023/11/25 14:06:43;;;;;;;17.38;3.08;;;1.80;99.90;;;;;;6276227;22;20024;-78
2023/11/25 14:09:31;;;;;;;16.23;2.97;;;1.80;99.90;;;;;;6276505;22;20107;-81
2023/11/25 14:12:18;;;;;;;7.75;2.45;;;1.70;99.90;;;;;;6274558;22;20317;-82
2023/11/25 14:15:07;;;;;;;13.40;3.63;;;1.70;99.90;;;;;;6275484;22;20058;-82
2023/11/25 14:17:55;;;;;;;10.65;3.88;;;1.70;99.90;;;;;;6272641;22;20107;-82
2023/11/25 14:20:43;;;;;;;9.30;3.63;;;1.60;99.90;;;;;;6272289;22;20425;-83
2023/11/25 14:23:37;;;;;;;11.90;3.95;;;1.60;99.90;;;;;;6273585;22;20425;-83
2023/11/25 14:26:25;;;;;;;14.23;4.68;;;1.60;99.90;;;;;;6272657;22;20081;-83
2023/11/25 14:29:16;;;;;;;13.23;3.50;;;1.60;99.90;;;;;;6272402;22;20083;-82
2023/11/25 14:32:04;;;;;;;9.65;4.38;;;1.60;99.90;;;;;;6274514;22;20020;-83
2023/11/25 14:34:54;;;;;;;8.63;4.63;;;1.60;99.90;;;;;;6273803;22;20023;-83
2023/11/25 14:37:45;;;;;;;14.52;4.57;;;1.60;99.90;;;;;;6275449;22;20034;-81
2023/11/25 14:40:37;;;;;;;13.38;5.15;;;1.60;99.90;;;;;;6274283;22;20093;-81
2023/11/25 14:43:31;;;;;;;11.93;4.68;;;1.60;99.90;;;;;;6273883;22;20307;-81
2023/11/25 14:46:21;;;;;;;9.35;3.92;;;1.60;99.90;;;;;;6272837;22;20051;-79
2023/11/25 14:49:09;;;;;;;14.75;4.18;;;1.60;99.90;;;;;;6275250;22;20089;-81
2023/11/25 14:51:57;;;;;;;12.35;5.47;;;1.60;99.90;;;;;;6249873;22;20032;-81